Yuho Maru No.3 — JD2491 — position and weather

sailwx.info

Track history (hours):
 
Tides and Currents Weather Stations Pressure Air Temp Water Temp Dewpoint Dewpoint Depression Visibility Wind Speed Wind Dir Waves Ship Positions

Yuho Maru No.3

Last reported at 2018-Jul-14 08:51 UTC. Time now 2018-Jul-18 05:06 UTC.
Position N 34°21' E 134°23'.

Length 65 m; draft 3.9 m.

Type: Tanker. MMSI: 431000336.

Date/timePositionNaut miles runAvg speedWind from/ knotsBaromVisibWave heightAir tempDewpointWater temp
2018-Jul-14 08:51N 34°21' E 134°23'412.0
2018-Jul-14 08:30N 34°20' E 134°28'2011.8
2018-Jul-14 06:49N 34°06' E 134°46'411.8
2018-Jul-14 06:30N 34°04' E 134°48'1011.6
2018-Jul-14 05:41N 33°56' E 134°56'21510.7
2018-Jul-13 09:34N 34°49' E 139°08'111.6
2018-Jul-13 09:30N 34°50' E 139°09'611.3
2018-Jul-13 09:00N 34°54' E 139°13'19 9.9
2018-Jul-13 07:03N 35°04' E 139°33'111.4
2018-Jul-13 07:00N 35°04' E 139°34'712.5
2018-Jul-13 06:29N 35°07' E 139°41'612.0
2018-Jul-13 06:00N 35°11' E 139°45'510.1
2018-Jul-13 05:30N 35°16' E 139°45'611.2
2018-Jul-13 05:00N 35°21' E 139°42'510.6
2018-Jul-13 04:29N 35°26' E 139°46'611.7
2018-Jul-13 03:59N 35°30' E 139°51'7 1.5
2018-Jul-12 23:08N 35°29' E 140°00'1 8.5
2018-Jul-12 22:59N 35°30' E 139°59'7 0.4
2018-Jul-12 05:58N 35°35' E 139°55'6 1.5
2018-Jul-12 02:01N 35°32' E 140°00'8 1.0
2018-Jul-11 17:32N 35°28' E 139°52'012.4
2018-Jul-11 17:30N 35°28' E 139°51'612.3
2018-Jul-11 17:00N 35°23' E 139°46'611.7
2018-Jul-11 16:30N 35°18' E 139°45'612.1
2018-Jul-11 16:00N 35°12' E 139°47'611.5
2018-Jul-11 15:29N 35°06' E 139°44'611.7
2018-Jul-11 15:00N 35°02' E 139°39'613.1
2018-Jul-11 14:30N 34°58' E 139°33'714.7
2018-Jul-11 14:00N 34°54' E 139°26'226 6.1
2018-Jul-10 00:51N 33°52' E 135°02'611.8
2018-Jul-10 00:19N 33°57' E 134°57'511.2
2018-Jul-09 23:53N 34°00' E 134°53'411.8
2018-Jul-09 23:30N 34°04' E 134°49'  
Track history (hours):
 
Tides and Currents Weather Stations Pressure Air Temp Water Temp Dewpoint Dewpoint Depression Visibility Wind Speed Wind Dir Waves Ship Positions

Yuho Maru No.3

Last reported at 2018-Jul-14 08:51 UTC. Time now 2018-Jul-18 05:06 UTC.
Position N 34°21' E 134°23'.

Length 65 m; draft 3.9 m.

Type: Tanker. MMSI: 431000336.

Date/timePositionNaut miles runAvg speedWind from/ knotsBaromVisibWave heightAir tempDewpointWater temp
2018-Jul-14 08:51N 34°21' E 134°23'412.0
2018-Jul-14 08:30N 34°20' E 134°28'2011.8
2018-Jul-14 06:49N 34°06' E 134°46'411.8
2018-Jul-14 06:30N 34°04' E 134°48'1011.6
2018-Jul-14 05:41N 33°56' E 134°56'21510.7
2018-Jul-13 09:34N 34°49' E 139°08'111.6
2018-Jul-13 09:30N 34°50' E 139°09'611.3
2018-Jul-13 09:00N 34°54' E 139°13'19 9.9
2018-Jul-13 07:03N 35°04' E 139°33'111.4
2018-Jul-13 07:00N 35°04' E 139°34'712.5
2018-Jul-13 06:29N 35°07' E 139°41'612.0
2018-Jul-13 06:00N 35°11' E 139°45'510.1
2018-Jul-13 05:30N 35°16' E 139°45'611.2
2018-Jul-13 05:00N 35°21' E 139°42'510.6
2018-Jul-13 04:29N 35°26' E 139°46'611.7
2018-Jul-13 03:59N 35°30' E 139°51'7 1.5
2018-Jul-12 23:08N 35°29' E 140°00'1 8.5
2018-Jul-12 22:59N 35°30' E 139°59'7 0.4
2018-Jul-12 05:58N 35°35' E 139°55'6 1.5
2018-Jul-12 02:01N 35°32' E 140°00'8 1.0
2018-Jul-11 17:32N 35°28' E 139°52'012.4
2018-Jul-11 17:30N 35°28' E 139°51'612.3
2018-Jul-11 17:00N 35°23' E 139°46'611.7
2018-Jul-11 16:30N 35°18' E 139°45'612.1
2018-Jul-11 16:00N 35°12' E 139°47'611.5
2018-Jul-11 15:29N 35°06' E 139°44'611.7
2018-Jul-11 15:00N 35°02' E 139°39'613.1
2018-Jul-11 14:30N 34°58' E 139°33'714.7
2018-Jul-11 14:00N 34°54' E 139°26'226 6.1
2018-Jul-10 00:51N 33°52' E 135°02'611.8
2018-Jul-10 00:19N 33°57' E 134°57'511.2
2018-Jul-09 23:53N 34°00' E 134°53'411.8
2018-Jul-09 23:30N 34°04' E 134°49'  

Dump ship's entire track history